createdAt,value
2018-02-08T00:00:29.887Z,103.20
2018-02-08T00:02:59.014Z,104.38
2018-02-08T00:05:26.705Z,99.05
2018-02-08T00:07:54.310Z,97.37
2018-02-08T00:10:21.905Z,103.55
2018-02-08T00:12:51.524Z,104.57
2018-02-08T00:15:19.051Z,92.05
2018-02-08T00:17:47.039Z,101.62
2018-02-08T00:20:18.347Z,107.93
2018-02-08T00:22:46.482Z,102.85
2018-02-08T00:25:15.291Z,91.82
2018-02-08T00:27:45.802Z,92.90
2018-02-08T00:30:14.880Z,113.47
2018-02-08T00:32:47.284Z,103.28
2018-02-08T00:35:17.960Z,106.87
2018-02-08T00:37:47.388Z,99.35
2018-02-08T00:40:20.533Z,103.82
2018-02-08T00:42:48.154Z,99.37
2018-02-08T00:45:16.569Z,110.85
2018-02-08T00:50:18.275Z,97.22
2018-02-08T00:52:45.821Z,105.65
2018-02-08T00:55:16.411Z,102.53
2018-02-08T00:57:44.054Z,108.25
2018-02-08T01:00:13.978Z,104.65
2018-02-08T01:02:44.587Z,106.35
2018-02-08T01:05:14.255Z,109.53
2018-02-08T01:07:46.275Z,97.90
2018-02-08T01:10:14.800Z,114.95
2018-02-08T01:12:42.410Z,114.90
2018-02-08T01:15:15.456Z,115.65
2018-02-08T01:17:45.052Z,103.43
2018-02-08T01:20:29.917Z,106.68
2018-02-08T01:22:58.066Z,109.20
2018-02-08T01:25:26.308Z,102.22
2018-02-08T01:27:57.569Z,107.22
2018-02-08T01:30:26.162Z,105.47
2018-02-08T01:32:53.864Z,107.05
2018-02-08T01:35:26.019Z,124.53
2018-02-08T01:37:54.834Z,114.72
2018-02-08T01:40:23.169Z,105.43
2018-02-08T01:42:56.577Z,121.30
2018-02-08T01:45:26.779Z,93.97
2018-02-08T01:48:01.317Z,100.43
2018-02-08T01:50:29.647Z,100.50
2018-02-08T01:52:58.856Z,102.38
2018-02-08T01:58:15.450Z,98.50
2018-02-08T02:00:48.563Z,92.12
2018-02-08T02:03:17.917Z,95.38
2018-02-08T02:05:45.473Z,103.95
2018-02-08T02:10:52.978Z,99.15
2018-02-08T02:13:25.692Z,110.12
2018-02-08T02:15:53.258Z,116.65
2018-02-08T02:18:22.879Z,103.78
2018-02-08T02:20:59.081Z,101.85
2018-02-08T02:23:27.380Z,106.30
2018-02-08T02:26:00.269Z,102.12
2018-02-08T02:28:31.172Z,99.07
2018-02-08T02:30:59.481Z,106.63
2018-02-08T02:33:27.902Z,102.57
2018-02-08T02:38:29.810Z,110.57
2018-02-08T02:41:02.241Z,116.10
2018-02-08T02:43:30.088Z,114.00
2018-02-08T02:45:58.589Z,109.47
2018-02-08T02:50:59.324Z,107.93
2018-02-08T02:53:27.791Z,117.22
2018-02-08T02:55:58.843Z,116.45
2018-02-08T02:58:28.798Z,110.05
2018-02-08T03:00:58.287Z,107.25
2018-02-08T03:06:08.118Z,106.93
2018-02-08T03:08:38.230Z,104.60
2018-02-08T03:11:10.235Z,103.65
2018-02-08T03:13:37.881Z,109.65
2018-02-08T03:16:07.882Z,109.12
2018-02-08T03:18:35.505Z,112.50
2018-02-08T03:21:03.099Z,116.93
2018-02-08T03:23:31.917Z,110.10
2018-02-08T03:26:03.811Z,112.93
2018-02-08T03:28:31.572Z,113.60
2018-02-08T03:31:08.986Z,104.45
2018-02-08T03:36:19.795Z,109.35
2018-02-08T03:38:49.192Z,95.43
2018-02-08T03:41:19.064Z,95.93
2018-02-08T03:46:23.178Z,94.05
2018-02-08T03:48:56.734Z,108.35
2018-02-08T03:51:25.585Z,90.12
2018-02-08T03:53:53.138Z,105.87
2018-02-08T03:56:24.291Z,113.20
2018-02-08T03:58:52.331Z,120.13
2018-02-08T04:01:20.407Z,105.82
2018-02-08T04:03:50.548Z,126.65
2018-02-08T04:06:18.936Z,113.88
2018-02-08T04:08:46.637Z,109.85
2018-02-08T04:11:16.083Z,110.12
2018-02-08T04:13:44.408Z,105.63
2018-02-08T04:16:12.664Z,106.37
2018-02-08T04:18:42.785Z,112.65
2018-02-08T04:21:11.192Z,116.45
2018-02-08T04:23:39.607Z,122.62
2018-02-08T04:26:13.863Z,112.45
2018-02-08T04:28:46.732Z,119.35
2018-02-08T04:31:15.687Z,112.70
2018-02-08T04:33:44.600Z,118.85
2018-02-08T04:36:16.258Z,127.68
2018-02-08T04:38:56.811Z,119.65
2018-02-08T04:44:41.489Z,119.47
2018-02-08T04:47:23.848Z,120.55
2018-02-08T04:49:53.783Z,122.62
2018-02-08T04:54:56.478Z,110.10
2018-02-08T04:57:25.234Z,121.87
2018-02-08T05:00:01.122Z,106.72
2018-02-08T05:02:31.044Z,131.70
2018-02-08T05:05:00.246Z,129.87
2018-02-08T05:07:31.041Z,115.90
2018-02-08T05:09:58.600Z,117.57
2018-02-08T05:12:27.838Z,132.48
2018-02-08T05:14:55.461Z,116.45
2018-02-08T05:17:24.144Z,133.95
2018-02-08T05:19:55.093Z,119.68
2018-02-08T05:22:24.374Z,116.12
2018-02-08T05:24:53.224Z,109.78
2018-02-08T05:27:21.215Z,112.72
2018-02-08T05:29:48.702Z,112.80
2018-02-08T05:32:22.733Z,122.82
2018-02-08T05:34:53.333Z,130.20
2018-02-08T05:37:23.452Z,114.25
2018-02-08T05:39:52.759Z,113.12
2018-02-08T05:44:56.307Z,126.87
2018-02-08T05:47:28.711Z,122.62
2018-02-08T05:49:57.101Z,110.72
2018-02-08T05:52:32.006Z,119.75
2018-02-08T05:54:59.624Z,161.10
2018-02-08T05:57:28.824Z,165.95
2018-02-08T05:59:57.388Z,137.23
2018-02-08T06:02:28.304Z,129.25
2018-02-08T06:04:57.077Z,131.07
2018-02-08T06:07:28.480Z,119.57
2018-02-08T06:10:01.606Z,129.70
2018-02-08T06:12:29.904Z,125.82
2018-02-08T06:14:58.046Z,107.05
2018-02-08T06:17:27.580Z,134.57
2018-02-08T06:19:56.166Z,126.75
2018-02-08T06:22:24.501Z,127.47
2018-02-08T06:24:52.078Z,123.38
2018-02-08T06:27:19.595Z,113.43
2018-02-08T06:29:49.362Z,129.77
2018-02-08T06:32:25.078Z,121.35
2018-02-08T06:35:01.602Z,128.10
2018-02-08T06:37:29.512Z,118.15
2018-02-08T06:39:57.364Z,121.22
2018-02-08T06:42:25.682Z,125.68
2018-02-08T06:45:05.492Z,130.77
2018-02-08T06:47:33.329Z,118.60
2018-02-08T06:50:01.172Z,127.57
2018-02-08T06:52:28.653Z,124.80
2018-02-08T06:54:56.886Z,124.30
2018-02-08T06:57:25.247Z,124.07
2018-02-08T06:59:52.776Z,118.47
2018-02-08T07:02:27.677Z,114.60
2018-02-08T07:04:57.873Z,134.50
2018-02-08T07:07:29.106Z,132.05
2018-02-08T07:09:59.911Z,120.03
2018-02-08T07:12:28.318Z,135.57
2018-02-08T07:14:56.696Z,160.10
2018-02-08T07:17:30.232Z,134.02
2018-02-08T07:20:00.621Z,131.87
2018-02-08T07:22:29.612Z,156.35
2018-02-08T07:24:58.769Z,133.60
2018-02-08T07:27:26.665Z,145.48
2018-02-08T07:29:55.838Z,141.77
2018-02-08T07:32:24.202Z,148.82
2018-02-08T07:34:53.571Z,139.57
2018-02-08T07:37:26.253Z,141.68
2018-02-08T07:39:56.839Z,158.20
2018-02-08T07:42:25.928Z,147.02
2018-02-08T07:44:54.349Z,157.35
2018-02-08T07:47:23.358Z,133.65
2018-02-08T07:49:51.049Z,138.15
2018-02-08T07:52:20.932Z,132.57
2018-02-08T07:54:49.553Z,142.68
2018-02-08T07:57:18.282Z,155.18
2018-02-08T07:59:45.890Z,133.80
2018-02-08T08:02:14.483Z,143.10
2018-02-08T08:04:42.120Z,138.02
2018-02-08T08:07:10.503Z,135.77
2018-02-08T08:09:38.969Z,134.73
2018-02-08T08:12:06.603Z,136.98
2018-02-08T08:14:35.461Z,144.68
2018-02-08T08:17:03.088Z,135.35
2018-02-08T08:19:32.331Z,138.05
2018-02-08T08:22:00.012Z,116.90
2018-02-08T08:24:28.361Z,128.43
2018-02-08T08:26:56.386Z,129.70
2018-02-08T08:29:24.387Z,136.12
2018-02-08T08:31:52.745Z,126.10
2018-02-08T08:34:21.333Z,118.50
2018-02-08T08:36:48.893Z,118.90
2018-02-08T08:39:16.415Z,122.50
2018-02-08T08:41:43.921Z,126.28
2018-02-08T08:44:12.211Z,132.87
2018-02-08T08:46:39.708Z,110.28
2018-02-08T08:49:07.160Z,126.70
2018-02-08T08:51:34.628Z,156.15
2018-02-08T08:54:02.094Z,140.75
2018-02-08T08:56:29.553Z,116.88
2018-02-08T08:58:57.009Z,128.38
2018-02-08T09:01:24.476Z,131.87
2018-02-08T09:03:51.924Z,129.15
2018-02-08T09:06:19.390Z,110.53
2018-02-08T09:08:46.838Z,129.68
2018-02-08T09:11:14.290Z,119.18
2018-02-08T09:13:41.744Z,117.93
2018-02-08T09:16:09.214Z,123.97
2018-02-08T09:18:36.674Z,118.90
2018-02-08T09:21:04.136Z,133.20
2018-02-08T09:23:31.597Z,118.20
2018-02-08T09:25:59.830Z,115.53
2018-02-08T09:28:27.310Z,115.28
2018-02-08T09:30:54.766Z,118.13
2018-02-08T09:33:22.235Z,117.78
2018-02-08T09:35:49.694Z,107.65
2018-02-08T09:38:17.187Z,125.57
2018-02-08T09:40:45.420Z,120.32
2018-02-08T09:43:12.874Z,125.87
2018-02-08T09:45:40.328Z,125.60
2018-02-08T09:48:07.785Z,129.35
2018-02-08T09:50:35.244Z,130.68
2018-02-08T09:53:02.703Z,123.13
2018-02-08T09:55:30.166Z,119.40
2018-02-08T09:57:57.628Z,128.32
2018-02-08T10:00:25.086Z,130.37
2018-02-08T10:02:52.542Z,132.05
2018-02-08T10:05:20.761Z,120.97
2018-02-08T10:07:48.225Z,132.52
2018-02-08T10:10:15.686Z,113.68
2018-02-08T10:12:43.207Z,121.15
2018-02-08T10:15:11.417Z,122.45
2018-02-08T10:17:38.878Z,119.53
2018-02-08T10:20:07.100Z,124.03
2018-02-08T10:22:35.331Z,117.35
2018-02-08T10:25:02.787Z,107.72
2018-02-08T10:27:30.250Z,106.90
2018-02-08T10:29:57.714Z,105.70
2018-02-08T10:32:25.940Z,118.07
2018-02-08T10:34:53.392Z,122.60
2018-02-08T10:37:20.845Z,149.95
2018-02-08T10:39:48.309Z,116.72
2018-02-08T10:42:15.778Z,120.70
2018-02-08T10:44:43.246Z,125.28
2018-02-08T10:47:10.706Z,131.18
2018-02-08T10:49:38.177Z,118.45
2018-02-08T10:52:05.630Z,116.90
2018-02-08T10:54:33.091Z,122.22
2018-02-08T10:57:01.318Z,117.47
2018-02-08T10:59:28.772Z,123.00
2018-02-08T11:01:57.000Z,117.78
2018-02-08T11:04:24.467Z,110.68
2018-02-08T11:06:51.920Z,123.78
2018-02-08T11:09:19.402Z,124.32
2018-02-08T11:11:47.626Z,103.70
2018-02-08T11:14:15.986Z,114.55
2018-02-08T11:16:43.433Z,108.53
2018-02-08T11:19:10.884Z,113.40
2018-02-08T11:21:38.349Z,113.45
2018-02-08T11:24:05.800Z,110.15
2018-02-08T11:26:33.248Z,111.10
2018-02-08T11:29:01.480Z,105.80
2018-02-08T11:31:29.715Z,110.45
2018-02-08T11:33:57.183Z,139.20
2018-02-08T11:36:24.642Z,221.07
2018-02-08T11:38:52.122Z,130.75
2018-02-08T11:41:19.587Z,110.22
2018-02-08T11:43:47.059Z,128.52
2018-02-08T11:46:14.532Z,133.18
2018-02-08T11:48:42.751Z,120.00
2018-02-08T11:51:10.219Z,109.18
2018-02-08T11:53:37.672Z,130.73
2018-02-08T11:56:05.143Z,120.07
2018-02-08T11:58:32.610Z,106.85
2018-02-08T12:01:00.078Z,111.57
2018-02-08T12:03:27.538Z,117.45
2018-02-08T12:05:55.001Z,113.72
2018-02-08T12:08:23.230Z,103.95
2018-02-08T12:10:50.693Z,104.47
2018-02-08T12:13:18.141Z,99.95
2018-02-08T12:15:45.606Z,104.25
2018-02-08T12:18:13.057Z,108.25
2018-02-08T12:20:40.512Z,94.18
2018-02-08T12:23:07.964Z,103.50
2018-02-08T12:25:35.420Z,108.70
2018-02-08T12:28:02.872Z,90.40
2018-02-08T12:30:30.342Z,112.03
2018-02-08T12:32:57.804Z,105.00
2018-02-08T12:35:25.273Z,113.93
2018-02-08T12:37:53.129Z,136.75
2018-02-08T12:40:20.587Z,106.18
2018-02-08T12:42:48.053Z,167.80
2018-02-08T12:45:15.528Z,105.72
2018-02-08T12:47:42.990Z,106.40
2018-02-08T12:50:11.227Z,114.05
2018-02-08T12:52:38.695Z,107.35
2018-02-08T12:55:06.179Z,105.57
2018-02-08T12:57:33.629Z,101.65
2018-02-08T13:00:01.085Z,127.87
2018-02-08T13:02:28.549Z,103.03
2018-02-08T13:04:56.784Z,99.50
2018-02-08T13:07:24.247Z,107.45
2018-02-08T13:09:51.715Z,100.50
2018-02-08T13:12:19.178Z,103.32
2018-02-08T13:14:46.654Z,100.03
2018-02-08T13:17:14.873Z,113.07
2018-02-08T13:19:42.343Z,103.53
2018-02-08T13:22:09.793Z,104.78
2018-02-08T13:24:37.256Z,94.32
2018-02-08T13:27:04.718Z,106.47
2018-02-08T13:29:32.182Z,97.28
2018-02-08T13:32:02.141Z,97.50
2018-02-08T13:34:29.556Z,97.05
2018-02-08T13:36:57.782Z,101.62
2018-02-08T13:39:25.312Z,119.47
2018-02-08T13:41:52.723Z,95.10
2018-02-08T13:44:20.200Z,85.53
2018-02-08T13:46:47.649Z,93.68
2018-02-08T13:49:20.788Z,97.70
2018-02-08T13:54:51.529Z,97.65
2018-02-08T13:57:30.677Z,99.55
2018-02-08T14:00:07.348Z,102.00
2018-02-08T14:02:35.578Z,105.72
2018-02-08T14:05:03.048Z,115.45
2018-02-08T14:07:30.504Z,112.70
2018-02-08T14:09:57.978Z,115.03
2018-02-08T14:12:25.431Z,107.37
2018-02-08T14:14:52.883Z,111.88
2018-02-08T14:17:20.351Z,103.35
2018-02-08T14:19:48.582Z,98.60
2018-02-08T14:22:16.051Z,104.47
2018-02-08T14:24:43.495Z,100.95
2018-02-08T14:27:10.944Z,105.10
2018-02-08T14:29:38.410Z,95.40
2018-02-08T14:32:05.881Z,97.50
2018-02-08T14:34:33.338Z,105.72
2018-02-08T14:37:00.783Z,108.60
2018-02-08T14:39:28.249Z,102.53
2018-02-08T14:41:55.704Z,108.72
2018-02-08T14:44:23.185Z,103.72
2018-02-08T14:46:50.647Z,110.45
2018-02-08T14:49:18.107Z,103.15
2018-02-08T14:51:46.335Z,111.43
2018-02-08T14:54:13.787Z,98.68
2018-02-08T14:56:41.242Z,112.15
2018-02-08T14:59:08.712Z,110.60
2018-02-08T15:01:36.164Z,107.28
2018-02-08T15:04:03.623Z,105.75
2018-02-08T15:06:31.094Z,112.40
2018-02-08T15:08:58.555Z,113.78
2018-02-08T15:11:26.018Z,118.50
2018-02-08T15:13:53.469Z,110.90
2018-02-08T15:16:20.935Z,106.65
2018-02-08T15:18:48.398Z,115.75
2018-02-08T15:21:15.853Z,122.30
2018-02-08T15:23:43.304Z,120.10
2018-02-08T15:26:10.769Z,112.55
2018-02-08T15:28:38.236Z,121.75
2018-02-08T15:31:06.465Z,112.57
2018-02-08T15:33:33.919Z,112.45
2018-02-08T15:36:01.786Z,112.43
2018-02-08T15:38:30.023Z,123.53
2018-02-08T15:40:58.294Z,127.53
2018-02-08T15:43:26.508Z,133.35
2018-02-08T15:45:53.961Z,111.12
2018-02-08T15:48:21.422Z,115.20
2018-02-08T15:50:48.923Z,119.65
2018-02-08T15:53:16.371Z,121.35
2018-02-08T15:55:43.822Z,120.78
2018-02-08T15:58:11.287Z,127.57
2018-02-08T16:00:38.757Z,120.80
2018-02-08T16:03:06.973Z,119.65
2018-02-08T16:05:34.434Z,123.43
2018-02-08T16:08:01.900Z,117.20
2018-02-08T16:10:29.386Z,116.45
2018-02-08T16:12:56.818Z,119.65
2018-02-08T16:15:24.275Z,121.45
2018-02-08T16:17:51.738Z,113.55
2018-02-08T16:20:19.188Z,121.03
2018-02-08T16:22:46.644Z,118.53
2018-02-08T16:25:14.122Z,137.93
2018-02-08T16:27:41.562Z,118.37
2018-02-08T16:30:09.048Z,117.85
2018-02-08T16:32:36.496Z,120.05
2018-02-08T16:35:03.955Z,121.37
2018-02-08T16:37:31.809Z,110.95
2018-02-08T16:39:59.259Z,122.97
2018-02-08T16:42:26.735Z,121.70
2018-02-08T16:44:54.180Z,125.35
2018-02-08T16:47:21.660Z,118.60
2018-02-08T16:49:49.107Z,125.18
2018-02-08T16:52:16.565Z,122.30
2018-02-08T16:54:44.022Z,122.95
2018-02-08T16:57:11.477Z,131.60
2018-02-08T16:59:38.949Z,131.40
2018-02-08T17:02:07.182Z,124.97
2018-02-08T17:04:34.638Z,129.95
2018-02-08T17:07:02.101Z,121.68
2018-02-08T17:09:29.577Z,118.65
2018-02-08T17:11:57.088Z,114.35
2018-02-08T17:14:24.533Z,126.25
2018-02-08T17:16:51.979Z,124.97
2018-02-08T17:19:19.448Z,121.75
2018-02-08T17:21:46.975Z,124.80
2018-02-08T17:24:15.214Z,112.50
2018-02-08T17:26:42.674Z,118.25
2018-02-08T17:29:10.124Z,107.63
2018-02-08T17:31:37.594Z,98.43
2018-02-08T17:34:05.823Z,104.72
2018-02-08T17:36:33.664Z,118.18
2018-02-08T17:39:01.935Z,124.00
2018-02-08T17:41:30.170Z,119.20
2018-02-08T17:43:57.634Z,108.25
2018-02-08T17:46:25.095Z,102.62
2018-02-08T17:48:52.557Z,119.37
2018-02-08T17:51:20.026Z,117.15
2018-02-08T17:53:47.486Z,115.12
2018-02-08T17:56:14.932Z,104.05
2018-02-08T17:58:42.415Z,104.78
2018-02-08T18:01:09.859Z,103.95
2018-02-08T18:03:37.326Z,114.50
2018-02-08T18:06:05.557Z,111.28
2018-02-08T18:08:33.772Z,110.05
2018-02-08T18:11:01.985Z,108.45
2018-02-08T18:13:29.455Z,107.72
2018-02-08T18:15:56.914Z,104.53
2018-02-08T18:18:24.391Z,109.47
2018-02-08T18:20:51.855Z,97.78
2018-02-08T18:23:19.326Z,108.63
2018-02-08T18:25:46.780Z,101.32
2018-02-08T18:28:14.232Z,104.78
2018-02-08T18:30:41.701Z,111.40
2018-02-08T18:33:09.925Z,90.43
2018-02-08T18:35:37.378Z,107.37
2018-02-08T18:38:04.846Z,108.45
2018-02-08T18:40:32.770Z,112.40
2018-02-08T18:43:00.966Z,105.35
2018-02-08T18:45:28.425Z,112.03
2018-02-08T18:47:55.877Z,105.32
2018-02-08T18:50:23.334Z,104.05
2018-02-08T18:52:50.803Z,112.97
2018-02-08T18:55:18.270Z,110.88
2018-02-08T18:57:45.802Z,117.82
2018-02-08T19:00:13.251Z,121.20
2018-02-08T19:02:40.733Z,111.07
2018-02-08T19:05:08.189Z,114.50
2018-02-08T19:07:35.747Z,125.57
2018-02-08T19:10:03.230Z,117.82
2018-02-08T19:12:30.693Z,120.35
2018-02-08T19:14:58.162Z,131.68
2018-02-08T19:17:25.625Z,115.22
2018-02-08T19:19:53.078Z,118.95
2018-02-08T19:22:20.549Z,109.78
2018-02-08T19:24:48.788Z,131.87
2018-02-08T19:27:16.250Z,111.70
2018-02-08T19:29:43.715Z,121.65
2018-02-08T19:32:11.194Z,116.12
2018-02-08T19:34:39.417Z,119.70
2018-02-08T19:37:06.872Z,125.28
2018-02-08T19:39:34.350Z,118.53
2018-02-08T19:42:01.796Z,140.55
2018-02-08T19:44:29.252Z,134.70
2018-02-08T19:46:56.746Z,129.18
2018-02-08T19:49:24.976Z,124.45
2018-02-08T19:51:52.432Z,116.80
2018-02-08T19:54:19.893Z,121.62
2018-02-08T19:56:47.362Z,114.72
2018-02-08T19:59:14.817Z,128.07
2018-02-08T20:01:42.305Z,132.50
2018-02-08T20:04:10.534Z,134.40
2018-02-08T20:06:37.994Z,121.87
2018-02-08T20:09:05.440Z,128.00
2018-02-08T20:11:32.893Z,133.52
2018-02-08T20:14:00.359Z,125.57
2018-02-08T20:16:27.824Z,129.85
2018-02-08T20:18:55.294Z,142.95
2018-02-08T20:21:22.748Z,128.27
2018-02-08T20:23:50.998Z,128.07
2018-02-08T20:26:18.478Z,150.90
2018-02-08T20:28:45.977Z,127.93
2018-02-08T20:31:14.198Z,133.52
2018-02-08T20:33:41.665Z,148.65
2018-02-08T20:36:09.126Z,151.18
2018-02-08T20:38:37.359Z,134.50
2018-02-08T20:41:04.811Z,141.07
2018-02-08T20:43:32.723Z,129.87
2018-02-08T20:46:00.233Z,142.23
2018-02-08T20:48:27.762Z,146.05
2018-02-08T20:50:58.332Z,137.48
2018-02-08T20:53:25.802Z,126.05
2018-02-08T20:55:53.265Z,124.68
2018-02-08T20:58:20.716Z,134.05
2018-02-08T21:00:48.517Z,140.00
2018-02-08T21:03:20.482Z,132.95
2018-02-08T21:05:49.208Z,145.35
2018-02-08T21:08:18.199Z,134.68
2018-02-08T21:10:53.894Z,130.90
2018-02-08T21:13:22.215Z,127.18
2018-02-08T21:15:50.427Z,130.43
2018-02-08T21:18:18.022Z,141.50
2018-02-08T21:20:45.479Z,147.32
2018-02-08T21:23:12.933Z,135.10
2018-02-08T21:25:40.478Z,130.63
2018-02-08T21:28:08.696Z,130.50
2018-02-08T21:30:36.917Z,141.05
2018-02-08T21:33:04.378Z,137.62
2018-02-08T21:35:32.099Z,137.57
2018-02-08T21:37:59.574Z,136.25
2018-02-08T21:40:27.046Z,118.40
2018-02-08T21:42:54.503Z,133.70
2018-02-08T21:45:21.967Z,138.12
2018-02-08T21:47:49.415Z,151.90
2018-02-08T21:50:16.871Z,136.68
2018-02-08T21:52:44.329Z,130.52
2018-02-08T21:55:11.777Z,135.12
2018-02-08T21:57:39.227Z,153.68
2018-02-08T22:00:06.678Z,146.70
2018-02-08T22:02:34.144Z,132.93
2018-02-08T22:05:01.604Z,133.75
2018-02-08T22:07:29.052Z,138.02
2018-02-08T22:09:56.512Z,148.55
2018-02-08T22:12:24.729Z,131.43
2018-02-08T22:14:52.198Z,132.90
2018-02-08T22:17:20.427Z,157.75
2018-02-08T22:19:47.881Z,144.50
2018-02-08T22:22:15.340Z,139.18
2018-02-08T22:24:42.810Z,146.18
2018-02-08T22:27:10.266Z,135.93
2018-02-08T22:29:37.716Z,135.63
2018-02-08T22:32:05.171Z,138.18
2018-02-08T22:34:32.626Z,146.13
2018-02-08T22:37:00.088Z,135.07
2018-02-08T22:39:27.548Z,127.80
2018-02-08T22:41:55.010Z,133.48
2018-02-08T22:44:22.474Z,135.93
2018-02-08T22:46:50.335Z,139.02
2018-02-08T22:49:17.799Z,143.18
2018-02-08T22:51:45.255Z,139.80
2018-02-08T22:54:12.726Z,129.75
2018-02-08T22:56:40.173Z,141.10
2018-02-08T22:59:07.649Z,132.07
2018-02-08T23:01:35.886Z,133.40
2018-02-08T23:04:03.345Z,125.30
2018-02-08T23:06:30.801Z,132.77
2018-02-08T23:08:58.269Z,130.82
2018-02-08T23:11:25.730Z,133.45
2018-02-08T23:13:53.183Z,128.80
2018-02-08T23:16:20.646Z,138.32
2018-02-08T23:18:48.106Z,141.98
2018-02-08T23:21:15.555Z,132.18
2018-02-08T23:23:43.017Z,116.07
2018-02-08T23:26:10.470Z,130.00
2018-02-08T23:28:37.929Z,137.45
2018-02-08T23:31:05.397Z,142.60
2018-02-08T23:33:32.858Z,131.32
2018-02-08T23:36:01.091Z,161.50
2018-02-08T23:38:28.554Z,123.65
2018-02-08T23:40:56.010Z,136.80
2018-02-08T23:43:23.460Z,118.75
2018-02-08T23:45:50.967Z,132.85
2018-02-08T23:48:19.192Z,127.53
2018-02-08T23:50:46.652Z,139.32
2018-02-08T23:53:14.120Z,141.02
2018-02-08T23:55:41.589Z,127.85
2018-02-08T23:58:09.049Z,126.95
